createdAt,value
2018-06-08T00:01:49.033Z,100.00
2018-06-08T00:04:18.119Z,100.00
2018-06-08T00:06:47.193Z,100.00
2018-06-08T00:11:51.983Z,100.00
2018-06-08T00:16:56.734Z,100.00
2018-06-08T00:19:25.800Z,100.00
2018-06-08T00:21:54.909Z,100.00
2018-06-08T00:24:23.977Z,100.00
2018-06-08T00:27:02.542Z,100.00
2018-06-08T00:29:31.674Z,100.00
2018-06-08T00:32:01.644Z,100.00
2018-06-08T00:34:30.707Z,100.00
2018-06-08T00:36:59.781Z,100.00
2018-06-08T00:39:28.865Z,100.00
2018-06-08T00:41:58.869Z,100.00
2018-06-08T00:44:28.887Z,100.00
2018-06-08T00:46:57.952Z,100.00
2018-06-08T00:52:03.759Z,100.00
2018-06-08T00:54:32.843Z,100.00
2018-06-08T00:57:03.790Z,100.00
2018-06-08T00:59:32.865Z,100.00
2018-06-08T01:02:01.945Z,100.00
2018-06-08T01:04:31.021Z,100.00
2018-06-08T01:07:00.089Z,100.00
2018-06-08T01:09:29.160Z,100.00
2018-06-08T01:11:58.265Z,100.00
2018-06-08T01:14:27.297Z,100.00
2018-06-08T01:16:56.398Z,100.00
2018-06-08T01:19:25.465Z,100.00
2018-06-08T01:21:54.534Z,100.00
2018-06-08T01:24:23.651Z,100.00
2018-06-08T01:26:52.703Z,100.00
2018-06-08T01:29:21.792Z,100.00
2018-06-08T01:31:50.875Z,100.00
2018-06-08T01:36:55.652Z,100.00
2018-06-08T01:42:00.515Z,100.00
2018-06-08T01:47:05.349Z,100.00
2018-06-08T01:49:34.501Z,100.00
2018-06-08T01:52:03.542Z,100.00
2018-06-08T01:54:33.523Z,100.00
2018-06-08T01:57:02.594Z,100.00
2018-06-08T01:59:31.679Z,100.00
2018-06-08T02:02:00.756Z,100.00
2018-06-08T02:04:30.753Z,100.00
2018-06-08T02:09:35.555Z,100.00
2018-06-08T02:14:09.269Z,100.00
2018-06-08T02:16:38.346Z,100.00
2018-06-08T02:19:07.418Z,100.00
2018-06-08T02:21:36.515Z,100.00
2018-06-08T02:24:05.583Z,100.00
2018-06-08T02:26:34.674Z,100.00
2018-06-08T02:29:03.753Z,100.00
2018-06-08T02:31:32.823Z,100.00
2018-06-08T02:34:01.894Z,100.00
2018-06-08T02:36:30.953Z,100.00
2018-06-08T02:39:00.029Z,100.00
2018-06-08T02:41:29.088Z,100.00
2018-06-08T02:43:58.145Z,100.00
2018-06-08T02:49:02.943Z,100.00
2018-06-08T02:51:32.015Z,100.00
2018-06-08T02:56:37.053Z,100.00
2018-06-08T03:01:41.842Z,100.00
2018-06-08T03:04:10.929Z,100.00
2018-06-08T03:06:39.988Z,100.00
2018-06-08T03:09:09.102Z,100.00
2018-06-08T03:11:38.161Z,100.00
2018-06-08T03:14:07.229Z,100.00
2018-06-08T03:19:12.196Z,100.00
2018-06-08T03:21:41.280Z,100.00
2018-06-08T03:24:10.354Z,100.00
2018-06-08T03:26:39.530Z,100.00
2018-06-08T03:29:09.001Z,100.00
2018-06-08T03:31:38.074Z,100.00
2018-06-08T03:34:07.155Z,100.00
2018-06-08T03:39:11.961Z,100.00
2018-06-08T03:41:41.311Z,100.00
2018-06-08T03:44:10.361Z,100.00
2018-06-08T03:46:39.510Z,100.00
2018-06-08T03:49:08.821Z,100.00
2018-06-08T03:51:37.899Z,100.00
2018-06-08T03:54:07.942Z,100.00
2018-06-08T03:56:37.155Z,100.00
2018-06-08T03:59:06.284Z,100.00
2018-06-08T04:04:11.118Z,100.00
2018-06-08T04:11:51.733Z,100.00
2018-06-08T04:16:56.573Z,100.00
2018-06-08T04:22:02.872Z,100.00
2018-06-08T04:24:31.942Z,100.00
2018-06-08T04:27:00.997Z,100.00
2018-06-08T04:29:31.871Z,100.00
2018-06-08T04:34:37.139Z,100.00
2018-06-08T04:39:41.983Z,100.00
2018-06-08T04:42:11.083Z,100.00
2018-06-08T04:44:40.677Z,100.00
2018-06-08T04:49:45.461Z,100.00
2018-06-08T04:52:15.202Z,100.00
2018-06-08T04:54:44.268Z,100.00
2018-06-08T04:57:16.309Z,100.00
2018-06-08T05:02:32.934Z,97.46
2018-06-08T05:05:02.280Z,96.59
2018-06-08T05:07:31.949Z,97.69
2018-06-08T05:10:01.055Z,98.42
2018-06-08T05:12:30.117Z,98.20
2018-06-08T05:14:59.727Z,98.21
2018-06-08T05:17:29.747Z,98.92
2018-06-08T05:19:59.513Z,97.59
2018-06-08T05:22:35.252Z,97.09
2018-06-08T05:25:05.201Z,96.16
2018-06-08T05:27:34.318Z,97.15
2018-06-08T05:30:04.946Z,98.37
2018-06-08T05:32:47.486Z,98.12
2018-06-08T05:35:18.967Z,98.59
2018-06-08T05:40:23.956Z,97.87
2018-06-08T05:42:58.167Z,97.87
2018-06-08T05:45:27.238Z,98.71
2018-06-08T05:48:00.034Z,99.94
2018-06-08T05:50:29.097Z,100.00
2018-06-08T05:52:59.378Z,100.00
2018-06-08T05:55:29.129Z,99.45
2018-06-08T05:58:14.148Z,98.74
2018-06-08T06:00:58.353Z,98.12
2018-06-08T06:06:04.753Z,96.26
2018-06-08T06:08:34.874Z,95.30
2018-06-08T06:11:05.838Z,96.46
2018-06-08T06:13:35.890Z,96.51
2018-06-08T06:16:04.952Z,96.99
2018-06-08T06:18:34.018Z,95.73
2018-06-08T06:21:04.015Z,96.26
2018-06-08T06:23:35.001Z,96.00
2018-06-08T06:26:04.217Z,95.14
2018-06-08T06:28:39.385Z,93.72
2018-06-08T06:31:08.482Z,94.41
2018-06-08T06:33:42.254Z,94.80
2018-06-08T06:36:11.621Z,95.52
2018-06-08T06:38:40.698Z,94.67
2018-06-08T06:41:10.318Z,96.43
2018-06-08T06:43:39.384Z,94.43
2018-06-08T06:46:09.030Z,93.70
2018-06-08T06:48:38.136Z,91.83
2018-06-08T06:51:08.644Z,88.44
2018-06-08T06:53:37.752Z,85.99
2018-06-08T06:56:07.641Z,85.57
2018-06-08T06:58:36.709Z,86.09
2018-06-08T07:03:43.671Z,82.10
2018-06-08T07:06:13.811Z,84.23
2018-06-08T07:08:43.781Z,79.66
2018-06-08T07:11:13.605Z,80.67
2018-06-08T07:13:54.034Z,82.31
2018-06-08T07:16:23.113Z,81.41
2018-06-08T07:24:06.404Z,78.81
2018-06-08T07:26:37.466Z,76.76
2018-06-08T07:29:06.550Z,78.56
2018-06-08T07:31:36.594Z,78.55
2018-06-08T07:34:09.096Z,83.74
2018-06-08T07:36:42.217Z,82.49
2018-06-08T07:39:14.774Z,80.45
2018-06-08T07:44:23.463Z,82.86
2018-06-08T07:46:58.447Z,82.27
2018-06-08T07:49:30.950Z,83.73
2018-06-08T07:52:02.695Z,80.40
2018-06-08T07:54:35.820Z,77.83
2018-06-08T07:57:06.477Z,78.22
2018-06-08T07:59:42.815Z,78.60
2018-06-08T08:02:15.194Z,79.43
2018-06-08T08:04:47.410Z,75.06
2018-06-08T08:07:20.299Z,78.73
2018-06-08T08:09:56.227Z,77.85
2018-06-08T08:12:31.363Z,77.37
2018-06-08T08:15:00.394Z,75.62
2018-06-08T08:17:30.366Z,74.37
2018-06-08T08:20:05.379Z,74.91
2018-06-08T08:22:39.637Z,73.54
2018-06-08T08:25:13.367Z,75.54
2018-06-08T08:28:03.714Z,75.43
2018-06-08T08:30:36.391Z,77.66
2018-06-08T08:33:08.299Z,76.21
2018-06-08T08:35:40.887Z,72.96
2018-06-08T08:38:13.941Z,72.15
2018-06-08T08:40:47.001Z,71.78
2018-06-08T08:43:20.077Z,70.78
2018-06-08T08:46:00.550Z,72.12
2018-06-08T08:48:32.743Z,67.83
2018-06-08T08:51:07.812Z,69.02
2018-06-08T08:56:15.563Z,73.20
2018-06-08T08:58:44.621Z,68.49
2018-06-08T09:01:14.497Z,65.81
2018-06-08T09:03:48.799Z,65.50
2018-06-08T09:06:17.890Z,65.95
2018-06-08T09:08:47.405Z,68.12
2018-06-08T09:11:16.474Z,64.53
2018-06-08T09:13:45.734Z,62.98
2018-06-08T09:16:14.951Z,63.32
2018-06-08T09:18:47.121Z,61.05
2018-06-08T09:21:16.349Z,58.97
2018-06-08T09:23:49.252Z,61.74
2018-06-08T09:26:19.650Z,59.34
2018-06-08T09:28:48.723Z,54.74
2018-06-08T09:31:17.776Z,50.77
2018-06-08T09:33:47.445Z,50.05
2018-06-08T09:36:16.515Z,52.79
2018-06-08T09:38:48.088Z,44.58
2018-06-08T09:41:17.150Z,50.89
2018-06-08T09:46:22.194Z,51.09
2018-06-08T09:48:51.269Z,46.25
2018-06-08T09:51:20.823Z,49.01
2018-06-08T09:53:49.884Z,49.51
2018-06-08T09:56:21.398Z,44.03
2018-06-08T10:04:06.104Z,43.17
2018-06-08T10:06:38.206Z,38.21
2018-06-08T10:11:48.533Z,34.95
2018-06-08T10:14:20.415Z,34.90
2018-06-08T10:16:51.651Z,30.85
2018-06-08T10:19:23.450Z,37.25
2018-06-08T10:24:32.717Z,35.16
2018-06-08T10:27:04.424Z,43.33
2018-06-08T10:29:37.378Z,39.25
2018-06-08T10:32:10.708Z,40.07
2018-06-08T10:34:43.819Z,34.93
2018-06-08T10:39:57.204Z,32.53
2018-06-08T10:42:30.604Z,30.59
2018-06-08T10:45:03.069Z,31.52
2018-06-08T10:47:36.043Z,32.12
2018-06-08T10:50:08.430Z,27.82
2018-06-08T10:52:42.545Z,30.76
2018-06-08T10:55:15.712Z,28.20
2018-06-08T10:57:49.210Z,26.48
2018-06-08T11:00:22.539Z,26.85
2018-06-08T11:02:54.220Z,27.88
2018-06-08T11:08:05.466Z,28.70
2018-06-08T11:10:38.008Z,31.56
2018-06-08T11:13:07.070Z,34.10
2018-06-08T11:15:40.533Z,32.31
2018-06-08T11:18:13.102Z,29.97
2018-06-08T11:20:46.061Z,32.40
2018-06-08T11:23:18.767Z,32.15
2018-06-08T11:25:50.734Z,31.66
2018-06-08T11:28:24.684Z,30.46
2018-06-08T11:30:55.025Z,28.16
2018-06-08T11:33:27.800Z,29.14
2018-06-08T11:36:00.626Z,30.42
2018-06-08T11:38:29.775Z,30.25
2018-06-08T11:41:00.068Z,30.25
2018-06-08T11:43:31.581Z,27.34
2018-06-08T11:46:04.288Z,27.39
2018-06-08T11:48:36.269Z,28.66
2018-06-08T11:51:08.907Z,26.98
2018-06-08T11:53:41.410Z,26.47
2018-06-08T11:56:22.501Z,25.53
2018-06-08T11:58:53.694Z,23.23
2018-06-08T12:01:26.489Z,26.29
2018-06-08T12:03:58.775Z,25.95
2018-06-08T12:06:31.700Z,26.71
2018-06-08T12:09:04.199Z,28.48
2018-06-08T12:11:40.701Z,28.06
2018-06-08T12:14:12.822Z,26.82
2018-06-08T12:16:50.578Z,28.73
2018-06-08T12:19:20.321Z,26.48
2018-06-08T12:21:49.927Z,25.00
2018-06-08T12:24:23.595Z,27.87
2018-06-08T12:26:56.123Z,26.73
2018-06-08T12:29:30.636Z,25.37
2018-06-08T12:32:02.490Z,24.85
2018-06-08T12:34:35.204Z,24.59
2018-06-08T12:37:07.478Z,24.75
2018-06-08T12:42:20.420Z,26.70
2018-06-08T12:44:52.197Z,27.64
2018-06-08T12:47:25.346Z,29.06
2018-06-08T12:49:56.613Z,30.18
2018-06-08T12:52:31.123Z,30.08
2018-06-08T12:55:04.279Z,27.06
2018-06-08T12:57:36.155Z,26.84
2018-06-08T13:00:09.274Z,25.77
2018-06-08T13:02:42.125Z,23.92
2018-06-08T13:05:18.469Z,25.06
2018-06-08T13:07:51.636Z,24.36
2018-06-08T13:10:24.218Z,24.17
2018-06-08T13:12:56.287Z,24.01
2018-06-08T13:15:30.529Z,24.87
2018-06-08T13:18:01.987Z,22.87
2018-06-08T13:20:35.855Z,24.44
2018-06-08T13:23:08.530Z,22.80
2018-06-08T13:25:39.354Z,23.17
2018-06-08T13:28:12.613Z,24.42
2018-06-08T13:33:24.575Z,25.62
2018-06-08T13:35:56.921Z,27.12
2018-06-08T13:38:28.901Z,29.00
2018-06-08T13:41:01.344Z,30.40
2018-06-08T13:43:34.095Z,30.74
2018-06-08T13:46:06.521Z,29.53
2018-06-08T13:48:37.756Z,29.73
2018-06-08T13:51:10.731Z,29.95
2018-06-08T13:53:44.037Z,29.94
2018-06-08T13:56:16.947Z,32.96
2018-06-08T13:58:49.550Z,32.19
2018-06-08T14:01:22.725Z,32.45
2018-06-08T14:03:55.131Z,32.40
2018-06-08T14:09:04.574Z,31.12
2018-06-08T14:11:37.544Z,33.63
2018-06-08T14:14:10.839Z,32.46
2018-06-08T14:16:44.144Z,31.53
2018-06-08T14:19:16.859Z,30.68
2018-06-08T14:21:49.907Z,32.77
2018-06-08T14:24:22.757Z,33.50
2018-06-08T14:26:53.865Z,33.94
2018-06-08T14:29:25.190Z,32.80
2018-06-08T14:31:57.226Z,30.95
2018-06-08T14:34:28.552Z,29.92
2018-06-08T14:37:02.095Z,28.87
2018-06-08T14:39:35.386Z,28.82
2018-06-08T14:42:05.162Z,27.54
2018-06-08T14:44:34.245Z,25.87
2018-06-08T14:47:03.301Z,27.00
2018-06-08T14:49:32.362Z,28.33
2018-06-08T14:52:05.720Z,28.96
2018-06-08T14:54:38.743Z,30.00
2018-06-08T14:57:10.793Z,27.97
2018-06-08T14:59:42.980Z,28.30
2018-06-08T15:02:17.058Z,27.37
2018-06-08T15:04:47.682Z,27.39
2018-06-08T15:07:20.013Z,26.48
2018-06-08T15:09:53.377Z,27.41
2018-06-08T15:12:24.125Z,26.54
2018-06-08T15:14:55.299Z,29.31
2018-06-08T15:17:27.909Z,31.48
2018-06-08T15:20:00.071Z,30.43
2018-06-08T15:22:32.886Z,29.73
2018-06-08T15:25:06.971Z,28.98
2018-06-08T15:30:13.986Z,30.27
2018-06-08T15:32:44.008Z,33.36
2018-06-08T15:35:13.070Z,36.94
2018-06-08T15:40:19.039Z,51.36
2018-06-08T15:42:49.008Z,64.87
2018-06-08T15:45:19.081Z,70.84
2018-06-08T15:47:49.075Z,77.77
2018-06-08T15:50:19.053Z,84.41
2018-06-08T15:52:48.862Z,84.84
2018-06-08T15:55:17.919Z,88.85
2018-06-08T15:57:48.293Z,89.51
2018-06-08T16:00:17.349Z,90.39
2018-06-08T16:02:46.890Z,94.18
2018-06-08T16:05:15.985Z,96.25
2018-06-08T16:07:45.728Z,95.96
2018-06-08T16:10:14.781Z,94.49
2018-06-08T16:12:44.697Z,96.59
2018-06-08T16:15:13.769Z,94.50
2018-06-08T16:17:44.222Z,96.67
2018-06-08T16:20:14.623Z,97.18
2018-06-08T16:22:43.747Z,95.56
2018-06-08T16:27:48.634Z,92.65
2018-06-08T16:30:17.706Z,94.56
2018-06-08T16:32:46.761Z,93.87
2018-06-08T16:36:18.304Z,86.56
2018-06-08T16:41:23.228Z,91.03
2018-06-08T16:43:52.338Z,87.45
2018-06-08T16:46:21.442Z,84.04
2018-06-08T16:51:26.526Z,89.69
2018-06-08T16:53:57.675Z,89.00
2018-06-08T16:56:26.740Z,90.93
2018-06-08T16:58:57.163Z,92.29
2018-06-08T17:01:27.182Z,88.97
2018-06-08T17:03:59.334Z,93.97
2018-06-08T17:09:04.132Z,88.53
2018-06-08T17:11:34.163Z,85.20
2018-06-08T17:19:17.123Z,83.59
2018-06-08T17:21:47.111Z,88.05
2018-06-08T17:26:59.006Z,82.84
2018-06-08T17:29:29.211Z,88.25
2018-06-08T17:34:34.967Z,86.47
2018-06-08T17:37:04.036Z,91.71
2018-06-08T17:39:34.057Z,91.16
2018-06-08T17:42:06.078Z,90.65
2018-06-08T17:44:35.137Z,89.11
2018-06-08T17:47:08.144Z,87.03
2018-06-08T17:49:37.516Z,93.06
2018-06-08T17:52:07.522Z,91.91
2018-06-08T17:54:36.931Z,92.22
2018-06-08T17:57:06.028Z,92.49
2018-06-08T17:59:36.394Z,93.78
2018-06-08T18:02:06.458Z,95.12
2018-06-08T18:04:35.515Z,96.54
2018-06-08T18:07:05.598Z,93.66
2018-06-08T18:09:34.659Z,92.53
2018-06-08T18:12:04.934Z,95.72
2018-06-08T18:14:34.006Z,96.07
2018-06-08T18:17:03.909Z,97.27
2018-06-08T18:22:09.347Z,95.25
2018-06-08T18:24:38.415Z,93.88
2018-06-08T18:29:43.807Z,95.04
2018-06-08T18:32:14.646Z,96.99
2018-06-08T18:34:43.788Z,96.54
2018-06-08T18:37:15.983Z,97.38
2018-06-08T18:39:45.058Z,97.53
2018-06-08T18:42:14.646Z,97.22
2018-06-08T18:44:43.711Z,97.05
2018-06-08T18:47:15.217Z,98.98
2018-06-08T18:49:44.261Z,100.00
2018-06-08T18:52:15.970Z,100.00
2018-06-08T18:54:45.026Z,100.00
2018-06-08T18:57:15.716Z,100.00
2018-06-08T19:02:22.751Z,99.10
2018-06-08T19:04:51.884Z,99.70
2018-06-08T19:07:21.629Z,99.83
2018-06-08T19:09:50.685Z,98.12
2018-06-08T19:12:20.500Z,96.72
2018-06-08T19:14:49.735Z,96.36
2018-06-08T19:17:19.619Z,97.15
2018-06-08T19:19:48.679Z,97.18
2018-06-08T19:22:19.358Z,98.06
2018-06-08T19:24:49.592Z,98.77
2018-06-08T19:27:19.506Z,97.58
2018-06-08T19:29:48.594Z,98.39
2018-06-08T19:32:20.496Z,99.63
2018-06-08T19:37:25.371Z,100.00
2018-06-08T19:39:54.885Z,99.38
2018-06-08T19:42:24.074Z,100.00
2018-06-08T19:44:54.187Z,100.00
2018-06-08T19:47:24.266Z,100.00
2018-06-08T19:49:55.418Z,100.00
2018-06-08T19:52:24.553Z,100.00
2018-06-08T19:57:30.150Z,100.00
2018-06-08T20:00:00.219Z,100.00
2018-06-08T20:02:30.916Z,100.00
2018-06-08T20:05:00.527Z,100.00
2018-06-08T20:07:29.675Z,100.00
2018-06-08T20:09:59.738Z,100.00
2018-06-08T20:12:28.801Z,100.00
2018-06-08T20:14:58.852Z,100.00
2018-06-08T20:17:27.922Z,100.00
2018-06-08T20:19:56.986Z,100.00
2018-06-08T20:22:29.108Z,100.00
2018-06-08T20:25:02.060Z,100.00
2018-06-08T20:27:36.613Z,100.00
2018-06-08T20:32:49.908Z,100.00
2018-06-08T20:35:22.504Z,100.00
2018-06-08T20:37:56.422Z,100.00
2018-06-08T20:40:29.237Z,100.00
2018-06-08T20:43:01.061Z,99.42
2018-06-08T20:50:44.597Z,98.56
2018-06-08T20:53:15.935Z,99.47
2018-06-08T20:55:46.697Z,100.00
2018-06-08T20:58:18.724Z,100.00
2018-06-08T21:00:52.738Z,100.00
2018-06-08T21:03:21.793Z,100.00
2018-06-08T21:05:51.033Z,100.00
2018-06-08T21:08:20.150Z,100.00
2018-06-08T21:10:50.044Z,100.00
2018-06-08T21:21:06.657Z,99.53
2018-06-08T21:23:35.717Z,100.00
2018-06-08T21:26:05.034Z,100.00
2018-06-08T21:28:34.229Z,100.00
2018-06-08T21:31:03.299Z,100.00
2018-06-08T21:33:32.372Z,100.00
2018-06-08T21:36:05.032Z,100.00
2018-06-08T21:38:34.104Z,100.00
2018-06-08T21:41:04.074Z,100.00
2018-06-08T21:43:33.134Z,100.00
2018-06-08T21:46:02.245Z,100.00
2018-06-08T21:51:07.126Z,100.00
2018-06-08T21:53:36.205Z,100.00
2018-06-08T21:56:05.283Z,100.00
2018-06-08T21:58:34.364Z,100.00
2018-06-08T22:03:39.170Z,99.97
2018-06-08T22:06:08.249Z,100.00
2018-06-08T22:08:37.312Z,100.00
2018-06-08T22:11:06.374Z,100.00
2018-06-08T22:13:35.473Z,100.00
2018-06-08T22:16:04.549Z,100.00
2018-06-08T22:18:35.522Z,100.00
2018-06-08T22:21:04.628Z,100.00
2018-06-08T22:23:34.190Z,100.00
2018-06-08T22:26:03.302Z,100.00
2018-06-08T22:28:32.354Z,100.00
2018-06-08T22:31:01.409Z,100.00
2018-06-08T22:33:30.511Z,100.00
2018-06-08T22:38:35.342Z,100.00
2018-06-08T22:41:04.428Z,100.00
2018-06-08T22:43:33.481Z,100.00
2018-06-08T22:46:02.558Z,100.00
2018-06-08T22:48:31.625Z,100.00
2018-06-08T22:51:00.725Z,100.00
2018-06-08T22:53:29.791Z,100.00
2018-06-08T22:55:58.856Z,100.00
2018-06-08T22:58:27.939Z,100.00
2018-06-08T23:00:58.119Z,100.00
2018-06-08T23:03:27.147Z,100.00
2018-06-08T23:05:56.210Z,100.00
2018-06-08T23:08:25.265Z,100.00
2018-06-08T23:10:54.326Z,99.59
2018-06-08T23:15:59.146Z,99.68
2018-06-08T23:18:28.273Z,100.00
2018-06-08T23:20:58.322Z,99.83
2018-06-08T23:26:05.133Z,99.57
2018-06-08T23:28:34.230Z,99.45
2018-06-08T23:33:39.283Z,98.97
2018-06-08T23:36:08.436Z,99.00
2018-06-08T23:38:38.491Z,99.35
2018-06-08T23:41:07.545Z,100.00
2018-06-08T23:43:36.598Z,99.23
2018-06-08T23:46:05.652Z,99.19
2018-06-08T23:48:34.705Z,99.57
2018-06-08T23:51:03.761Z,99.63
2018-06-08T23:53:32.826Z,99.47
2018-06-08T23:56:01.878Z,99.64
2018-06-08T23:58:30.953Z,100.00
